createdAt,value
2018-12-11T00:00:16.771Z,84.60
2018-12-11T00:02:45.413Z,84.60
2018-12-11T00:05:13.067Z,84.60
2018-12-11T00:07:40.758Z,84.70
2018-12-11T00:10:08.617Z,84.60
2018-12-11T00:12:36.470Z,83.60
2018-12-11T00:15:05.834Z,83.30
2018-12-11T00:17:35.582Z,83.50
2018-12-11T00:20:05.124Z,84.20
2018-12-11T00:22:32.805Z,84.40
2018-12-11T00:25:00.535Z,85.50
2018-12-11T00:27:28.240Z,86.50
2018-12-11T00:29:56.020Z,86.70
2018-12-11T00:32:24.637Z,87.20
2018-12-11T00:34:52.439Z,87.80
2018-12-11T00:37:20.245Z,88.30
2018-12-11T00:39:47.983Z,88.80
2018-12-11T00:42:16.444Z,88.80
2018-12-11T00:44:44.139Z,88.80
2018-12-11T00:47:12.843Z,89.60
2018-12-11T00:49:40.533Z,89.30
2018-12-11T00:52:08.453Z,89.50
2018-12-11T00:54:36.318Z,88.80
2018-12-11T00:57:04.201Z,88.80
2018-12-11T00:59:36.677Z,88.90
2018-12-11T01:02:05.493Z,89.50
2018-12-11T01:04:34.712Z,89.70
2018-12-11T01:07:04.451Z,89.60
2018-12-11T01:09:32.418Z,89.50
2018-12-11T01:12:00.029Z,89.80
2018-12-11T01:14:31.680Z,89.70
2018-12-11T01:17:02.321Z,90.00
2018-12-11T01:19:29.995Z,90.10
2018-12-11T01:22:01.113Z,90.20
2018-12-11T01:24:29.078Z,90.30
2018-12-11T01:26:56.821Z,90.60
2018-12-11T01:29:24.686Z,90.80
2018-12-11T01:31:55.423Z,90.90
2018-12-11T01:34:23.120Z,91.10
2018-12-11T01:36:52.130Z,91.30
2018-12-11T01:39:20.194Z,91.30
2018-12-11T01:41:47.909Z,91.30
2018-12-11T01:44:15.651Z,91.30
2018-12-11T01:46:44.103Z,91.20
2018-12-11T01:49:11.843Z,91.70
2018-12-11T01:51:39.690Z,91.20
2018-12-11T01:54:08.890Z,91.20
2018-12-11T01:56:36.541Z,91.40
2018-12-11T01:59:04.485Z,91.20
2018-12-11T02:01:33.062Z,91.30
2018-12-11T02:04:01.519Z,91.40
2018-12-11T02:06:31.128Z,91.20
2018-12-11T02:08:59.402Z,91.20
2018-12-11T02:11:27.120Z,91.20
2018-12-11T02:13:54.834Z,91.00
2018-12-11T02:16:22.586Z,90.60
2018-12-11T02:18:50.242Z,90.40
2018-12-11T02:21:17.965Z,90.00
2018-12-11T02:23:45.687Z,90.00
2018-12-11T02:26:13.452Z,88.90
2018-12-11T02:28:41.472Z,88.50
2018-12-11T02:31:09.215Z,88.60
2018-12-11T02:33:37.031Z,88.40
2018-12-11T02:36:04.782Z,88.40
2018-12-11T02:38:32.518Z,88.90
2018-12-11T02:41:00.205Z,88.90
2018-12-11T02:43:27.907Z,89.00
2018-12-11T02:45:55.628Z,88.80
2018-12-11T02:48:23.293Z,88.90
2018-12-11T02:50:51.040Z,89.20
2018-12-11T02:53:18.760Z,89.30
2018-12-11T02:55:46.505Z,89.50
2018-12-11T02:58:15.113Z,90.10
2018-12-11T03:00:42.894Z,90.40
2018-12-11T03:03:10.625Z,90.40
2018-12-11T03:05:38.358Z,90.30
2018-12-11T03:08:06.046Z,90.30
2018-12-11T03:10:33.805Z,90.30
2018-12-11T03:13:01.496Z,90.20
2018-12-11T03:15:29.234Z,90.00
2018-12-11T03:17:56.927Z,89.70
2018-12-11T03:20:24.764Z,89.80
2018-12-11T03:22:52.453Z,89.70
2018-12-11T03:25:20.169Z,90.10
2018-12-11T03:27:47.875Z,90.20
2018-12-11T03:30:15.579Z,90.50
2018-12-11T03:32:43.426Z,90.40
2018-12-11T03:35:11.126Z,90.60
2018-12-11T03:37:39.124Z,90.70
2018-12-11T03:40:06.968Z,90.90
2018-12-11T03:42:35.263Z,90.90
2018-12-11T03:45:04.046Z,90.90
2018-12-11T03:47:31.843Z,91.20
2018-12-11T03:49:59.724Z,90.90
2018-12-11T03:52:27.433Z,90.90
2018-12-11T03:54:55.135Z,90.90
2018-12-11T03:57:22.899Z,90.80
2018-12-11T03:59:50.605Z,90.90
2018-12-11T04:02:18.333Z,90.80
2018-12-11T04:04:46.068Z,90.80
2018-12-11T04:07:13.802Z,91.20
2018-12-11T04:09:41.547Z,91.20
2018-12-11T04:12:09.566Z,91.10
2018-12-11T04:14:37.670Z,91.30
2018-12-11T04:17:05.404Z,91.40
2018-12-11T04:19:33.097Z,91.40
2018-12-11T04:22:00.839Z,91.50
2018-12-11T04:24:29.350Z,91.40
2018-12-11T04:26:57.174Z,91.60
2018-12-11T04:29:25.182Z,91.60
2018-12-11T04:31:53.080Z,91.70
2018-12-11T04:34:20.778Z,91.80
2018-12-11T04:36:48.479Z,91.90
2018-12-11T04:39:16.268Z,92.20
2018-12-11T04:41:44.801Z,92.10
2018-12-11T04:44:12.558Z,92.20
2018-12-11T04:46:41.335Z,92.30
2018-12-11T04:49:08.990Z,92.40
2018-12-11T04:51:36.806Z,92.60
2018-12-11T04:54:04.529Z,92.50
2018-12-11T04:56:32.480Z,92.60
2018-12-11T04:59:00.265Z,92.60
2018-12-11T05:01:27.960Z,92.60
2018-12-11T05:03:55.681Z,92.70
2018-12-11T05:06:23.460Z,92.70
2018-12-11T05:08:51.309Z,92.90
2018-12-11T05:11:19.140Z,93.00
2018-12-11T05:13:46.851Z,93.00
2018-12-11T05:16:14.585Z,93.00
2018-12-11T05:18:42.995Z,93.00
2018-12-11T05:21:10.667Z,92.90
2018-12-11T05:23:38.515Z,93.00
2018-12-11T05:26:06.441Z,93.00
2018-12-11T05:28:34.158Z,92.90
2018-12-11T05:31:02.030Z,92.90
2018-12-11T05:33:29.691Z,92.90
2018-12-11T05:35:57.457Z,93.10
2018-12-11T05:38:25.655Z,93.00
2018-12-11T05:40:53.512Z,93.00
2018-12-11T05:43:21.192Z,93.00
2018-12-11T05:45:49.003Z,93.00
2018-12-11T05:48:16.811Z,93.00
2018-12-11T05:50:44.554Z,93.10
2018-12-11T05:53:12.224Z,93.10
2018-12-11T05:55:40.191Z,93.10
2018-12-11T05:58:08.037Z,93.10
2018-12-11T06:00:35.770Z,93.10
2018-12-11T06:03:03.461Z,93.20
2018-12-11T06:05:31.217Z,93.20
2018-12-11T06:07:59.103Z,93.20
2018-12-11T06:10:26.795Z,93.20
2018-12-11T06:12:54.591Z,93.20
2018-12-11T06:15:22.332Z,93.20
2018-12-11T06:17:50.039Z,93.20
2018-12-11T06:20:17.892Z,93.20
2018-12-11T06:22:45.590Z,92.90
2018-12-11T06:25:13.329Z,92.80
2018-12-11T06:27:41.346Z,92.80
2018-12-11T06:30:09.896Z,92.70
2018-12-11T06:32:37.634Z,92.70
2018-12-11T06:35:05.457Z,92.70
2018-12-11T06:37:33.270Z,92.70
2018-12-11T06:40:00.962Z,92.80
2018-12-11T06:42:28.629Z,92.70
2018-12-11T06:44:56.380Z,92.70
2018-12-11T06:47:24.185Z,92.70
2018-12-11T06:49:52.000Z,92.70
2018-12-11T06:52:19.671Z,92.70
2018-12-11T06:54:47.369Z,92.70
2018-12-11T06:57:15.056Z,92.70
2018-12-11T06:59:42.840Z,92.70
2018-12-11T07:02:10.546Z,92.70
2018-12-11T07:04:38.230Z,92.70
2018-12-11T07:07:06.092Z,92.70
2018-12-11T07:09:34.043Z,92.80
2018-12-11T07:12:01.770Z,92.70
2018-12-11T07:14:29.489Z,92.70
2018-12-11T07:16:57.290Z,92.70
2018-12-11T07:19:25.217Z,92.60
2018-12-11T07:21:52.916Z,92.60
2018-12-11T07:24:20.613Z,92.50
2018-12-11T07:26:48.433Z,92.50
2018-12-11T07:29:16.175Z,92.50
2018-12-11T07:31:44.556Z,92.40
2018-12-11T07:34:13.028Z,92.40
2018-12-11T07:36:40.764Z,92.30
2018-12-11T07:39:08.804Z,92.20
2018-12-11T07:41:36.536Z,92.20
2018-12-11T07:44:04.205Z,92.10
2018-12-11T07:46:32.053Z,92.10
2018-12-11T07:48:59.856Z,91.90
2018-12-11T07:51:27.645Z,91.90
2018-12-11T07:53:55.360Z,91.90
2018-12-11T07:56:24.093Z,91.80
2018-12-11T07:58:51.792Z,91.70
2018-12-11T08:01:19.482Z,91.50
2018-12-11T08:03:47.194Z,91.30
2018-12-11T08:06:14.835Z,91.10
2018-12-11T08:08:42.795Z,90.80
2018-12-11T08:11:10.527Z,90.70
2018-12-11T08:13:38.192Z,90.70
2018-12-11T08:16:06.212Z,90.60
2018-12-11T08:18:34.401Z,90.70
2018-12-11T08:21:02.117Z,90.70
2018-12-11T08:23:29.846Z,90.70
2018-12-11T08:25:57.679Z,90.60
2018-12-11T08:28:25.404Z,89.50
2018-12-11T08:30:53.124Z,86.00
2018-12-11T08:33:20.853Z,83.50
2018-12-11T08:35:48.578Z,79.20
2018-12-11T08:38:16.295Z,74.80
2018-12-11T08:40:44.025Z,74.40
2018-12-11T08:43:11.794Z,72.10
2018-12-11T08:45:39.442Z,71.60
2018-12-11T08:48:07.217Z,71.00
2018-12-11T08:50:35.209Z,70.40
2018-12-11T08:53:02.943Z,67.60
2018-12-11T08:55:30.598Z,67.50
2018-12-11T08:57:59.085Z,67.70
2018-12-11T09:00:26.789Z,68.50
2018-12-11T09:02:54.990Z,72.00
2018-12-11T09:05:22.730Z,72.00
2018-12-11T09:07:50.496Z,72.10
2018-12-11T09:10:18.273Z,68.90
2018-12-11T09:12:45.960Z,67.20
2018-12-11T09:15:13.681Z,68.80
2018-12-11T09:17:41.408Z,71.90
2018-12-11T09:20:09.110Z,75.30
2018-12-11T09:22:36.935Z,77.00
2018-12-11T09:25:05.607Z,76.50
2018-12-11T09:27:34.087Z,75.70
2018-12-11T09:30:02.018Z,74.00
2018-12-11T09:32:29.741Z,73.60
2018-12-11T09:34:57.442Z,74.10
2018-12-11T09:37:25.148Z,74.60
2018-12-11T09:39:52.892Z,74.90
2018-12-11T09:42:20.589Z,75.80
2018-12-11T09:44:48.355Z,76.30
2018-12-11T09:47:16.210Z,77.30
2018-12-11T09:49:44.031Z,77.80
2018-12-11T09:52:11.747Z,78.50
2018-12-11T09:54:39.499Z,77.60
2018-12-11T09:57:07.179Z,76.50
2018-12-11T09:59:34.958Z,74.90
2018-12-11T10:02:02.770Z,75.70
2018-12-11T10:04:30.496Z,75.20
2018-12-11T10:06:58.216Z,75.90
2018-12-11T10:09:25.948Z,76.50
2018-12-11T10:11:53.664Z,77.60
2018-12-11T10:14:21.476Z,78.90
2018-12-11T10:16:49.165Z,79.30
2018-12-11T10:19:16.911Z,78.50
2018-12-11T10:21:44.624Z,77.20
2018-12-11T10:24:12.442Z,75.40
2018-12-11T10:26:40.270Z,74.80
2018-12-11T10:29:08.041Z,74.30
2018-12-11T10:31:35.958Z,74.90
2018-12-11T10:34:03.677Z,75.30
2018-12-11T10:36:31.597Z,76.90
2018-12-11T10:38:59.349Z,79.70
2018-12-11T10:41:27.251Z,81.30
2018-12-11T10:43:55.262Z,81.70
2018-12-11T10:46:23.118Z,81.10
2018-12-11T10:48:50.932Z,82.30
2018-12-11T10:51:18.665Z,81.20
2018-12-11T10:53:46.465Z,81.20
2018-12-11T10:56:14.162Z,81.30
2018-12-11T10:58:41.949Z,79.60
2018-12-11T11:01:11.615Z,78.40
2018-12-11T11:03:39.458Z,78.10
2018-12-11T11:06:07.215Z,78.30
2018-12-11T11:08:35.017Z,78.00
2018-12-11T11:11:02.733Z,77.20
2018-12-11T11:13:30.911Z,76.30
2018-12-11T11:15:58.645Z,75.90
2018-12-11T11:18:26.503Z,75.50
2018-12-11T11:20:54.310Z,74.60
2018-12-11T11:23:22.782Z,73.70
2018-12-11T11:25:50.547Z,73.40
2018-12-11T11:28:19.456Z,73.60
2018-12-11T11:30:47.214Z,74.40
2018-12-11T11:33:14.937Z,75.00
2018-12-11T11:35:42.655Z,75.30
2018-12-11T11:38:10.403Z,75.70
2018-12-11T11:40:38.107Z,74.80
2018-12-11T11:43:05.818Z,75.50
2018-12-11T11:45:33.688Z,74.80
2018-12-11T11:48:01.925Z,73.80
2018-12-11T11:50:29.822Z,72.90
2018-12-11T11:52:57.600Z,72.90
2018-12-11T11:55:26.103Z,72.10
2018-12-11T11:57:54.316Z,72.00
2018-12-11T12:00:22.243Z,71.50
2018-12-11T12:02:50.455Z,72.60
2018-12-11T12:05:21.547Z,71.50
2018-12-11T12:07:49.269Z,71.00
2018-12-11T12:10:17.042Z,70.50
2018-12-11T12:12:44.737Z,68.90
2018-12-11T12:15:14.248Z,70.10
2018-12-11T12:17:41.983Z,69.70
2018-12-11T12:20:09.799Z,70.40
2018-12-11T12:22:37.573Z,69.40
2018-12-11T12:25:07.241Z,69.80
2018-12-11T12:27:35.067Z,70.20
2018-12-11T12:30:03.564Z,70.10
2018-12-11T12:32:31.267Z,70.00
2018-12-11T12:34:59.091Z,70.20
2018-12-11T12:37:27.158Z,70.80
2018-12-11T12:39:55.855Z,70.60
2018-12-11T12:42:24.205Z,70.50
2018-12-11T12:44:51.986Z,71.10
2018-12-11T12:47:20.262Z,71.20
2018-12-11T12:49:50.813Z,70.10
2018-12-11T12:52:17.790Z,69.20
2018-12-11T12:54:45.697Z,67.40
2018-12-11T12:57:13.407Z,67.40
2018-12-11T12:59:41.123Z,67.80
2018-12-11T13:02:08.826Z,67.30
2018-12-11T13:04:36.664Z,67.20
2018-12-11T13:07:04.485Z,66.10
2018-12-11T13:09:32.385Z,67.10
2018-12-11T13:12:00.065Z,65.80
2018-12-11T13:14:27.893Z,64.60
2018-12-11T13:16:55.674Z,62.90
2018-12-11T13:19:23.362Z,63.20
2018-12-11T13:21:51.362Z,63.90
2018-12-11T13:24:19.057Z,63.20
2018-12-11T13:26:46.854Z,63.80
2018-12-11T13:29:15.163Z,63.70
2018-12-11T13:31:42.885Z,63.80
2018-12-11T13:34:10.652Z,63.80
2018-12-11T13:36:38.588Z,62.50
2018-12-11T13:39:07.197Z,63.90
2018-12-11T13:41:34.955Z,64.00
2018-12-11T13:44:03.395Z,64.00
2018-12-11T13:46:31.525Z,63.50
2018-12-11T13:48:59.826Z,62.30
2018-12-11T13:51:27.705Z,62.20
2018-12-11T13:53:56.553Z,62.30
2018-12-11T13:56:24.306Z,63.30
2018-12-11T13:58:52.070Z,62.40
2018-12-11T14:03:52.291Z,64.00
2018-12-11T14:06:20.011Z,64.00
2018-12-11T14:08:47.954Z,63.90
2018-12-11T14:11:15.752Z,65.30
2018-12-11T14:13:43.678Z,66.60
2018-12-11T14:16:11.968Z,67.60
2018-12-11T14:18:39.843Z,68.30
2018-12-11T14:21:07.951Z,67.30
2018-12-11T14:23:36.106Z,68.30
2018-12-11T14:26:03.860Z,68.40
2018-12-11T14:28:31.973Z,70.20
2018-12-11T14:30:59.729Z,70.60
2018-12-11T14:33:27.627Z,70.90
2018-12-11T14:35:55.501Z,70.70
2018-12-11T14:38:23.224Z,70.10
2018-12-11T14:40:51.001Z,68.30
2018-12-11T14:43:18.790Z,68.20
2018-12-11T14:45:46.481Z,67.90
2018-12-11T14:48:14.337Z,68.20
2018-12-11T14:50:42.113Z,68.20
2018-12-11T14:53:09.885Z,70.00
2018-12-11T14:55:37.639Z,69.50
2018-12-11T14:58:05.362Z,68.50
2018-12-11T15:00:33.341Z,68.40
2018-12-11T15:03:01.469Z,68.50
2018-12-11T15:05:29.209Z,69.00
2018-12-11T15:07:57.400Z,69.30
2018-12-11T15:10:25.596Z,69.00
2018-12-11T15:12:53.700Z,69.40
2018-12-11T15:15:21.435Z,69.80
2018-12-11T15:17:49.162Z,70.10
2018-12-11T15:20:16.988Z,70.50
2018-12-11T15:22:44.743Z,70.90
2018-12-11T15:25:14.463Z,71.50
2018-12-11T15:27:42.180Z,71.40
2018-12-11T15:30:10.184Z,71.90
2018-12-11T15:32:38.010Z,71.80
2018-12-11T15:35:05.797Z,72.60
2018-12-11T15:37:33.567Z,72.60
2018-12-11T15:40:01.474Z,72.60
2018-12-11T15:42:29.482Z,72.60
2018-12-11T15:44:57.246Z,72.50
2018-12-11T15:47:25.051Z,72.60
2018-12-11T15:49:53.204Z,72.60
2018-12-11T15:52:21.039Z,72.60
2018-12-11T15:54:48.963Z,72.90
2018-12-11T15:57:16.683Z,72.90
2018-12-11T15:59:44.432Z,72.60
2018-12-11T16:02:12.595Z,72.60
2018-12-11T16:04:40.467Z,72.50
2018-12-11T16:07:08.294Z,72.50
2018-12-11T16:09:36.252Z,73.40
2018-12-11T16:12:04.742Z,74.60
2018-12-11T16:14:32.802Z,73.60
2018-12-11T16:17:00.633Z,74.30
2018-12-11T16:19:28.326Z,74.10
2018-12-11T16:21:56.055Z,74.60
2018-12-11T16:24:25.103Z,74.70
2018-12-11T16:26:52.914Z,74.60
2018-12-11T16:29:20.624Z,74.00
2018-12-11T16:31:48.377Z,74.00
2018-12-11T16:34:16.292Z,74.20
2018-12-11T16:36:44.113Z,74.20
2018-12-11T16:39:11.873Z,74.40
2018-12-11T16:41:39.629Z,74.70
2018-12-11T16:44:07.507Z,74.90
2018-12-11T16:46:36.100Z,75.00
2018-12-11T16:49:03.861Z,74.50
2018-12-11T16:51:31.707Z,74.40
2018-12-11T16:53:59.533Z,73.70
2018-12-11T16:56:27.259Z,73.60
2018-12-11T16:58:55.317Z,73.70
2018-12-11T17:01:23.149Z,73.60
2018-12-11T17:03:50.942Z,73.90
2018-12-11T17:06:18.810Z,74.20
2018-12-11T17:08:47.951Z,75.10
2018-12-11T17:11:15.719Z,75.10
2018-12-11T17:13:43.904Z,75.10
2018-12-11T17:16:11.826Z,75.70
2018-12-11T17:18:39.757Z,75.80
2018-12-11T17:21:08.449Z,75.60
2018-12-11T17:23:36.697Z,75.90
2018-12-11T17:26:04.673Z,76.30
2018-12-11T17:28:32.579Z,76.70
2018-12-11T17:31:00.292Z,77.00
2018-12-11T17:33:28.255Z,77.70
2018-12-11T17:35:56.066Z,77.90
2018-12-11T17:38:24.203Z,77.90
2018-12-11T17:40:51.978Z,78.20
2018-12-11T17:43:19.719Z,78.30
2018-12-11T17:45:47.533Z,78.30
2018-12-11T17:48:15.725Z,78.50
2018-12-11T17:50:43.474Z,78.80
2018-12-11T17:53:11.248Z,78.70
2018-12-11T17:55:39.962Z,78.80
2018-12-11T17:58:07.768Z,79.00
2018-12-11T18:00:35.560Z,79.20
2018-12-11T18:03:03.313Z,78.70
2018-12-11T18:05:31.072Z,78.80
2018-12-11T18:07:59.048Z,78.50
2018-12-11T18:10:27.004Z,78.90
2018-12-11T18:12:54.775Z,78.80
2018-12-11T18:15:22.628Z,78.40
2018-12-11T18:17:50.339Z,78.40
2018-12-11T18:20:18.974Z,78.20
2018-12-11T18:22:46.757Z,77.60
2018-12-11T18:25:14.473Z,77.00
2018-12-11T18:27:42.507Z,77.90
2018-12-11T18:30:10.244Z,77.20
2018-12-11T18:32:37.957Z,77.20
2018-12-11T18:35:06.223Z,77.10
2018-12-11T18:37:34.590Z,77.20
2018-12-11T18:40:02.923Z,77.90
2018-12-11T18:42:30.858Z,77.90
2018-12-11T18:45:03.239Z,77.90
2018-12-11T18:47:28.242Z,78.20
2018-12-11T18:49:55.954Z,78.80
2018-12-11T18:52:23.842Z,79.40
2018-12-11T18:54:51.682Z,79.70
2018-12-11T18:57:19.511Z,80.20
2018-12-11T18:59:47.431Z,80.10
2018-12-11T19:02:15.224Z,80.20
2018-12-11T19:04:42.944Z,80.20
2018-12-11T19:07:11.436Z,80.10
2018-12-11T19:09:39.173Z,80.90
2018-12-11T19:12:07.346Z,80.70
2018-12-11T19:14:35.142Z,80.60
2018-12-11T19:17:03.721Z,81.10
2018-12-11T19:19:31.777Z,80.70
2018-12-11T19:22:00.415Z,80.70
2018-12-11T19:24:29.168Z,80.70
2018-12-11T19:26:56.853Z,80.70
2018-12-11T19:29:24.692Z,80.70
2018-12-11T19:31:52.389Z,80.70
2018-12-11T19:34:20.704Z,79.70
2018-12-11T19:36:48.446Z,78.50
2018-12-11T19:39:16.347Z,77.80
2018-12-11T19:41:44.255Z,76.40
2018-12-11T19:44:13.448Z,76.30
2018-12-11T19:46:41.191Z,75.70
2018-12-11T19:49:09.044Z,75.80
2018-12-11T19:51:37.240Z,76.20
2018-12-11T19:54:04.922Z,76.30
2018-12-11T19:56:33.488Z,76.80
2018-12-11T19:59:01.225Z,77.00
2018-12-11T20:01:29.261Z,77.30
2018-12-11T20:03:57.173Z,77.90
2018-12-11T20:06:25.275Z,78.10
2018-12-11T20:08:53.621Z,78.50
2018-12-11T20:11:21.365Z,78.70
2018-12-11T20:13:49.156Z,78.80
2018-12-11T20:16:17.881Z,79.00
2018-12-11T20:18:45.791Z,79.40
2018-12-11T20:21:13.710Z,79.70
2018-12-11T20:23:41.425Z,79.00
2018-12-11T20:26:09.290Z,78.50
2018-12-11T20:28:36.981Z,78.80
2018-12-11T20:31:04.781Z,79.20
2018-12-11T20:33:33.805Z,80.10
2018-12-11T20:36:01.658Z,80.10
2018-12-11T20:38:29.433Z,80.90
2018-12-11T20:40:57.137Z,81.90
2018-12-11T20:43:25.045Z,83.20
2018-12-11T20:45:53.144Z,84.70
2018-12-11T20:48:22.198Z,85.30
2018-12-11T20:50:50.806Z,85.50
2018-12-11T20:53:19.088Z,86.30
2018-12-11T20:55:46.903Z,87.00
2018-12-11T20:58:14.709Z,87.80
2018-12-11T21:00:43.253Z,88.60
2018-12-11T21:03:10.991Z,88.60
2018-12-11T21:05:38.737Z,88.90
2018-12-11T21:08:06.629Z,89.70
2018-12-11T21:10:34.480Z,89.80
2018-12-11T21:13:02.325Z,90.10
2018-12-11T21:15:30.096Z,90.10
2018-12-11T21:17:57.917Z,90.40
2018-12-11T21:20:26.211Z,90.60
2018-12-11T21:22:54.049Z,90.60
2018-12-11T21:25:21.929Z,90.70
2018-12-11T21:27:49.731Z,90.80
2018-12-11T21:30:17.657Z,90.90
2018-12-11T21:32:46.363Z,91.10
2018-12-11T21:35:14.148Z,91.40
2018-12-11T21:37:41.982Z,91.60
2018-12-11T21:40:09.745Z,91.90
2018-12-11T21:42:38.242Z,92.00
2018-12-11T21:45:06.901Z,92.10
2018-12-11T21:47:34.694Z,92.20
2018-12-11T21:50:02.478Z,92.10
2018-12-11T21:52:30.282Z,92.20
2018-12-11T21:54:58.185Z,92.20
2018-12-11T21:57:25.874Z,92.20
2018-12-11T21:59:53.687Z,92.20
2018-12-11T22:02:22.194Z,92.30
2018-12-11T22:04:50.040Z,92.20
2018-12-11T22:07:18.733Z,92.20
2018-12-11T22:09:48.382Z,92.20
2018-12-11T22:12:16.512Z,92.10
2018-12-11T22:14:44.335Z,91.90
2018-12-11T22:17:12.059Z,92.00
2018-12-11T22:19:40.277Z,91.90
2018-12-11T22:22:08.085Z,91.80
2018-12-11T22:24:36.101Z,91.80
2018-12-11T22:27:03.978Z,91.70
2018-12-11T22:29:31.780Z,91.70
2018-12-11T22:31:59.607Z,91.70
2018-12-11T22:34:27.374Z,91.70
2018-12-11T22:39:27.140Z,91.80
2018-12-11T22:41:54.880Z,91.80
2018-12-11T22:44:22.793Z,91.80
2018-12-11T22:46:50.493Z,91.90
2018-12-11T22:49:18.330Z,91.80
2018-12-11T22:51:46.222Z,91.80
2018-12-11T22:54:14.216Z,91.80
2018-12-11T22:56:42.878Z,91.80
2018-12-11T22:59:10.644Z,91.80
2018-12-11T23:01:38.492Z,91.80
2018-12-11T23:04:06.261Z,91.80
2018-12-11T23:06:34.045Z,91.90
2018-12-11T23:09:01.866Z,91.90
2018-12-11T23:11:29.597Z,91.90
2018-12-11T23:13:57.425Z,91.90
2018-12-11T23:16:26.343Z,92.00
2018-12-11T23:18:54.429Z,92.00
2018-12-11T23:21:22.264Z,91.90
2018-12-11T23:23:50.086Z,91.90
2018-12-11T23:26:17.972Z,91.90
2018-12-11T23:28:45.671Z,91.90
2018-12-11T23:31:13.422Z,92.00
2018-12-11T23:33:41.199Z,91.90
2018-12-11T23:36:08.997Z,92.00
2018-12-11T23:38:37.807Z,92.00
2018-12-11T23:41:05.508Z,92.00
2018-12-11T23:43:33.290Z,92.00
2018-12-11T23:46:01.346Z,92.00
2018-12-11T23:48:29.101Z,92.00
2018-12-11T23:50:56.816Z,92.10
2018-12-11T23:53:24.822Z,92.30
2018-12-11T23:55:52.572Z,92.50
2018-12-11T23:58:20.357Z,92.60
